createdAt,value
2019-04-29T00:05:33.063Z,96437.58
2019-04-29T00:08:15.101Z,96435.23
2019-04-29T00:11:04.852Z,96433.52
2019-04-29T00:13:54.928Z,96436.59
2019-04-29T00:17:03.574Z,96427.55
2019-04-29T00:22:47.236Z,96429.89
2019-04-29T00:28:40.856Z,96410.13
2019-04-29T00:31:22.755Z,96427.37
2019-04-29T00:34:05.044Z,96424.38
2019-04-29T00:40:18.610Z,96424.28
2019-04-29T00:43:20.284Z,96407.46
2019-04-29T00:52:02.074Z,96429.51
2019-04-29T00:57:52.554Z,96434.31
2019-04-29T01:03:45.372Z,96435.60
2019-04-29T01:06:35.102Z,96425.16
2019-04-29T01:09:18.749Z,96418.17
2019-04-29T01:12:08.499Z,96433.41
2019-04-29T01:14:50.519Z,96434.50
2019-04-29T01:17:40.263Z,96431.61
2019-04-29T01:20:23.057Z,96430.67
2019-04-29T01:23:12.789Z,96428.99
2019-04-29T01:25:59.368Z,96403.81
2019-04-29T01:31:55.588Z,96433.25
2019-04-29T01:35:04.480Z,96428.77
2019-04-29T01:37:46.715Z,96425.03
2019-04-29T01:40:55.271Z,96432.82
2019-04-29T01:44:02.626Z,96432.83
2019-04-29T01:46:52.345Z,96411.92
2019-04-29T01:49:34.457Z,96434.37
2019-04-29T01:52:24.205Z,96435.71
2019-04-29T01:55:08.955Z,96441.78
2019-04-29T01:57:58.651Z,96439.03
2019-04-29T02:00:40.817Z,96431.29
2019-04-29T02:06:31.814Z,96434.98
2019-04-29T02:09:40.339Z,96435.77
2019-04-29T02:12:22.769Z,96433.39
2019-04-29T02:15:12.647Z,96428.48
2019-04-29T02:17:54.666Z,96430.53
2019-04-29T02:20:44.387Z,96427.37
2019-04-29T02:26:36.847Z,96403.86
2019-04-29T02:29:19.617Z,96415.20
2019-04-29T02:32:09.470Z,96415.59
2019-04-29T02:35:07.502Z,96417.55
2019-04-29T02:37:57.371Z,96423.63
2019-04-29T02:43:46.110Z,96433.01
2019-04-29T02:46:35.813Z,96428.14
2019-04-29T02:49:25.525Z,96423.36
2019-04-29T02:52:09.497Z,96428.61
2019-04-29T03:01:09.919Z,96407.04
2019-04-29T03:06:38.476Z,96421.88
2019-04-29T03:09:21.324Z,96424.22
2019-04-29T03:12:11.084Z,96414.34
2019-04-29T03:15:01.143Z,96425.66
2019-04-29T03:17:51.086Z,96422.53
2019-04-29T03:20:52.449Z,96431.99
2019-04-29T03:23:42.263Z,96429.31
2019-04-29T03:26:24.977Z,96428.19
2019-04-29T03:29:33.499Z,96422.78
2019-04-29T03:32:15.545Z,96429.34
2019-04-29T03:35:05.291Z,96422.12
2019-04-29T03:37:47.758Z,96412.61
2019-04-29T03:40:37.475Z,96426.25
2019-04-29T03:43:19.828Z,96423.91
2019-04-29T03:46:09.529Z,96415.02
2019-04-29T03:48:51.703Z,96422.14
2019-04-29T03:51:41.494Z,96420.36
2019-04-29T03:54:23.580Z,96426.69
2019-04-29T03:57:06.156Z,96425.77
2019-04-29T03:59:57.158Z,96433.61
2019-04-29T04:09:18.469Z,96431.85
2019-04-29T04:12:01.142Z,96417.84
2019-04-29T04:15:03.743Z,96439.61
2019-04-29T04:18:11.014Z,96440.06
2019-04-29T04:21:00.856Z,96444.33
2019-04-29T04:23:43.053Z,96437.53
2019-04-29T04:26:32.728Z,96441.48
2019-04-29T04:29:15.534Z,96444.03
2019-04-29T04:32:05.266Z,96449.36
2019-04-29T04:34:47.197Z,96455.06
2019-04-29T04:40:37.104Z,96450.26
2019-04-29T04:43:26.892Z,96463.32
2019-04-29T04:46:16.769Z,96439.66
2019-04-29T04:49:06.697Z,96464.13
2019-04-29T04:51:56.509Z,96449.83
2019-04-29T04:57:42.894Z,96463.98
2019-04-29T05:03:27.734Z,96464.94
2019-04-29T05:06:17.517Z,96469.13
2019-04-29T05:14:25.385Z,96464.11
2019-04-29T05:17:15.307Z,96473.70
2019-04-29T05:20:06.250Z,96468.98
2019-04-29T05:23:14.794Z,96452.62
2019-04-29T05:25:58.785Z,96474.78
2019-04-29T05:28:48.507Z,96476.72
2019-04-29T05:31:31.371Z,96470.73
2019-04-29T05:37:42.745Z,96484.42
2019-04-29T05:49:46.737Z,96486.09
2019-04-29T05:52:55.317Z,96489.23
2019-04-29T05:55:45.180Z,96492.59
2019-04-29T05:58:37.702Z,96498.66
2019-04-29T06:01:24.361Z,96500.20
2019-04-29T06:04:07.022Z,96500.34
2019-04-29T06:06:56.757Z,96495.91
2019-04-29T06:09:38.943Z,96505.63
2019-04-29T06:12:28.707Z,96503.42
2019-04-29T06:15:18.496Z,96501.89
2019-04-29T06:18:08.262Z,96502.89
2019-04-29T06:21:08.715Z,96495.20
2019-04-29T06:23:42.271Z,96517.09
2019-04-29T06:26:32.042Z,96512.88
2019-04-29T06:29:21.852Z,96516.95
2019-04-29T06:32:11.662Z,96518.14
2019-04-29T06:35:01.654Z,96520.55
2019-04-29T06:37:51.494Z,96523.36
2019-04-29T06:40:41.215Z,96507.83
2019-04-29T06:43:24.565Z,96526.73
2019-04-29T06:46:15.506Z,96528.09
2019-04-29T06:49:10.455Z,96503.61
2019-04-29T06:51:51.482Z,96520.34
2019-04-29T06:54:42.089Z,96503.42
2019-04-29T06:57:31.816Z,96526.02
2019-04-29T07:00:22.313Z,96530.72
2019-04-29T07:03:05.949Z,96532.70
2019-04-29T07:08:59.181Z,96540.41
2019-04-29T07:11:41.206Z,96533.41
2019-04-29T07:14:33.375Z,96545.62
2019-04-29T07:17:15.378Z,96542.46
2019-04-29T07:20:05.402Z,96546.84
2019-04-29T07:22:56.431Z,96547.20
2019-04-29T07:25:38.880Z,96544.06
2019-04-29T07:28:28.722Z,96551.50
2019-04-29T07:31:18.447Z,96559.20
2019-04-29T07:34:08.618Z,96556.36
2019-04-29T07:36:59.627Z,96551.78
2019-04-29T07:39:41.904Z,96552.97
2019-04-29T07:42:33.239Z,96546.98
2019-04-29T07:45:44.007Z,96555.42
2019-04-29T07:48:29.056Z,96553.03
2019-04-29T07:51:18.781Z,96531.36
2019-04-29T07:54:00.842Z,96550.92
2019-04-29T07:56:43.676Z,96548.72
2019-04-29T07:59:37.867Z,96549.73
2019-04-29T08:02:18.154Z,96548.80
2019-04-29T08:08:02.486Z,96547.32
2019-04-29T08:10:56.427Z,96550.64
2019-04-29T08:13:37.770Z,96552.20
2019-04-29T08:16:27.655Z,96553.91
2019-04-29T08:19:17.389Z,96549.59
2019-04-29T08:22:07.094Z,96536.97
2019-04-29T08:24:50.568Z,96549.77
2019-04-29T08:27:43.625Z,96547.03
2019-04-29T08:30:24.690Z,96554.41
2019-04-29T08:33:14.489Z,96535.79
2019-04-29T08:35:57.353Z,96541.45
2019-04-29T08:38:47.107Z,96538.38
2019-04-29T08:41:30.006Z,96561.58
2019-04-29T08:44:38.563Z,96543.89
2019-04-29T08:47:30.587Z,96563.48
2019-04-29T08:50:17.659Z,96567.25
2019-04-29T08:52:59.624Z,96560.01
2019-04-29T08:55:42.441Z,96557.57
2019-04-29T08:58:32.157Z,96559.98
2019-04-29T09:01:14.199Z,96560.61
2019-04-29T09:04:04.005Z,96559.30
2019-04-29T09:07:17.188Z,96557.45
2019-04-29T09:10:04.310Z,96543.14
2019-04-29T09:12:46.674Z,96547.34
2019-04-29T09:15:36.509Z,96549.50
2019-04-29T09:18:26.271Z,96541.17
2019-04-29T09:21:16.003Z,96540.23
2019-04-29T09:24:02.521Z,96541.70
2019-04-29T09:30:02.408Z,96536.68
2019-04-29T09:32:52.107Z,96541.55
2019-04-29T09:35:38.655Z,96543.58
2019-04-29T09:38:27.725Z,96546.52
2019-04-29T09:44:44.798Z,96533.62
2019-04-29T09:47:27.133Z,96534.69
2019-04-29T09:50:09.815Z,96535.38
2019-04-29T09:52:59.602Z,96534.10
2019-04-29T09:55:49.495Z,96527.42
2019-04-29T09:58:39.222Z,96526.09
2019-04-29T10:01:50.492Z,96531.59
2019-04-29T10:07:33.788Z,96537.44
2019-04-29T10:10:23.502Z,96523.42
2019-04-29T10:13:13.239Z,96529.89
2019-04-29T10:16:16.126Z,96527.62
2019-04-29T10:22:09.536Z,96525.98
2019-04-29T10:24:59.247Z,96522.02
2019-04-29T10:27:42.022Z,96521.91
2019-04-29T10:33:27.762Z,96513.08
2019-04-29T10:36:20.615Z,96493.97
2019-04-29T10:42:04.393Z,96505.52
2019-04-29T10:45:12.930Z,96500.63
2019-04-29T10:48:16.934Z,96505.23
2019-04-29T10:54:09.902Z,96497.85
2019-04-29T10:56:51.916Z,96488.94
2019-04-29T11:03:03.810Z,96475.76
2019-04-29T11:06:00.376Z,96483.66
2019-04-29T11:11:49.150Z,96474.63
2019-04-29T11:14:33.184Z,96446.05
2019-04-29T11:20:21.159Z,96462.89
2019-04-29T11:23:26.998Z,96457.63
2019-04-29T11:29:21.783Z,96450.72
2019-04-29T11:35:38.864Z,96425.84
2019-04-29T11:41:21.015Z,96444.91
2019-04-29T11:44:10.840Z,96444.58
2019-04-29T11:47:00.602Z,96422.09
2019-04-29T11:50:11.849Z,96440.27
2019-04-29T11:52:55.588Z,96434.40
2019-04-29T11:55:46.446Z,96438.12
2019-04-29T11:58:48.812Z,96434.42
2019-04-29T12:01:51.817Z,96436.16
2019-04-29T12:04:42.109Z,96437.12
2019-04-29T12:07:31.754Z,96436.91
2019-04-29T12:10:15.598Z,96431.75
2019-04-29T12:16:08.173Z,96407.16
2019-04-29T12:22:09.027Z,96427.03
2019-04-29T12:25:16.623Z,96429.52
2019-04-29T12:28:01.482Z,96430.51
2019-04-29T12:40:18.492Z,96449.87
2019-04-29T12:43:27.033Z,96430.86
2019-04-29T12:49:20.709Z,96430.64
2019-04-29T12:52:02.871Z,96425.34
2019-04-29T12:54:46.048Z,96406.31
2019-04-29T12:57:36.977Z,96406.73
2019-04-29T13:03:50.765Z,96421.57
2019-04-29T13:06:59.356Z,96416.67
2019-04-29T13:09:43.703Z,96390.52
2019-04-29T13:12:33.454Z,96400.44
2019-04-29T13:18:48.867Z,96401.56
2019-04-29T13:21:30.911Z,96401.56
2019-04-29T13:24:23.122Z,96376.33
2019-04-29T13:27:16.062Z,96393.88
2019-04-29T13:29:50.060Z,96384.84
2019-04-29T13:32:39.799Z,96387.37
2019-04-29T13:35:22.347Z,96374.13
2019-04-29T13:38:12.106Z,96383.37
2019-04-29T13:41:12.761Z,96377.66
2019-04-29T13:43:45.971Z,96375.85
2019-04-29T13:46:54.578Z,96373.86
2019-04-29T13:49:49.785Z,96378.87
2019-04-29T13:52:20.640Z,96380.31
2019-04-29T13:55:17.990Z,96378.63
2019-04-29T13:58:01.884Z,96358.37
2019-04-29T14:04:12.532Z,96385.56
2019-04-29T14:06:57.220Z,96379.30
2019-04-29T14:09:47.870Z,96382.24
2019-04-29T14:15:22.254Z,96392.39
2019-04-29T14:18:13.587Z,96380.94
2019-04-29T14:20:58.031Z,96389.13
2019-04-29T14:23:47.798Z,96368.64
2019-04-29T14:26:41.999Z,96387.94
2019-04-29T14:29:23.094Z,96382.29
2019-04-29T14:32:18.155Z,96374.49
2019-04-29T14:38:07.668Z,96376.42
2019-04-29T14:40:57.448Z,96357.94
2019-04-29T14:44:06.054Z,96375.47
2019-04-29T14:47:14.611Z,96375.13
2019-04-29T14:50:23.518Z,96381.77
2019-04-29T14:53:06.137Z,96383.11
2019-04-29T14:55:55.952Z,96382.93
2019-04-29T14:58:45.834Z,96386.22
2019-04-29T15:01:54.559Z,96375.80
2019-04-29T15:04:46.355Z,96383.09
2019-04-29T15:10:31.206Z,96390.81
2019-04-29T15:19:49.256Z,96390.41
2019-04-29T15:22:35.011Z,96389.84
2019-04-29T15:25:24.828Z,96367.35
2019-04-29T15:28:14.601Z,96381.92
2019-04-29T15:31:08.054Z,96385.25
2019-04-29T15:33:48.991Z,96388.37
2019-04-29T15:36:41.854Z,96373.15
2019-04-29T15:39:25.483Z,96372.92
2019-04-29T15:42:14.876Z,96358.70
2019-04-29T15:45:04.890Z,96386.83
2019-04-29T15:47:55.023Z,96380.36
2019-04-29T15:50:44.795Z,96387.58
2019-04-29T15:53:37.781Z,96386.22
2019-04-29T15:56:28.718Z,96386.03
2019-04-29T15:59:10.753Z,96380.75
2019-04-29T16:02:04.165Z,96384.84
2019-04-29T16:11:17.810Z,96383.58
2019-04-29T16:14:09.511Z,96377.95
2019-04-29T16:17:11.083Z,96376.72
2019-04-29T16:20:00.836Z,96375.73
2019-04-29T16:22:54.184Z,96378.69
2019-04-29T16:25:46.378Z,96378.67
2019-04-29T16:28:31.570Z,96380.06
2019-04-29T16:31:17.882Z,96382.80
2019-04-29T16:34:00.081Z,96387.22
2019-04-29T16:36:52.395Z,96364.72
2019-04-29T16:39:35.304Z,96392.94
2019-04-29T16:42:43.890Z,96384.72
2019-04-29T16:45:51.512Z,96367.57
2019-04-29T16:48:40.671Z,96391.00
2019-04-29T16:51:27.369Z,96392.72
2019-04-29T16:54:20.408Z,96392.47
2019-04-29T16:57:01.039Z,96392.30
2019-04-29T16:59:50.782Z,96396.17
2019-04-29T17:02:33.034Z,96385.80
2019-04-29T17:05:22.727Z,96392.36
2019-04-29T17:08:15.198Z,96386.70
2019-04-29T17:13:56.954Z,96393.05
2019-04-29T17:16:47.124Z,96391.62
2019-04-29T17:19:36.920Z,96391.42
2019-04-29T17:25:28.571Z,96371.73
2019-04-29T17:34:56.582Z,96392.22
2019-04-29T17:37:17.641Z,96390.78
2019-04-29T17:52:35.228Z,96388.12
2019-04-29T18:04:54.223Z,96386.29
2019-04-29T18:10:40.303Z,96405.83
2019-04-29T18:13:26.444Z,96403.63
2019-04-29T18:16:18.074Z,96392.19
2019-04-29T18:19:20.596Z,96391.00
2019-04-29T18:22:29.286Z,96417.58
2019-04-29T18:28:17.276Z,96403.50
2019-04-29T18:34:15.293Z,96421.14
2019-04-29T18:37:06.525Z,96422.11
2019-04-29T18:39:49.602Z,96418.46
2019-04-29T18:42:43.323Z,96420.39
2019-04-29T18:45:25.427Z,96388.20
2019-04-29T18:48:17.924Z,96416.69
2019-04-29T18:50:58.655Z,96422.00
2019-04-29T18:53:48.661Z,96425.78
2019-04-29T18:56:38.479Z,96432.49
2019-04-29T18:59:33.324Z,96433.55
2019-04-29T19:02:12.595Z,96426.56
2019-04-29T19:08:12.148Z,96433.73
2019-04-29T19:13:57.879Z,96447.75
2019-04-29T19:16:47.677Z,96440.95
2019-04-29T19:19:30.833Z,96449.45
2019-04-29T19:22:21.409Z,96449.42
2019-04-29T19:25:10.415Z,96454.80
2019-04-29T19:27:55.672Z,96450.98
2019-04-29T19:30:37.760Z,96447.22
2019-04-29T19:33:30.798Z,96444.72
2019-04-29T19:36:17.576Z,96448.80
2019-04-29T19:39:05.640Z,96448.70
2019-04-29T19:41:50.403Z,96447.85
2019-04-29T19:44:39.519Z,96454.33
2019-04-29T19:47:21.691Z,96450.94
2019-04-29T19:50:16.615Z,96451.36
2019-04-29T19:52:56.197Z,96455.27
2019-04-29T19:55:45.959Z,96458.72
2019-04-29T19:58:31.846Z,96457.58
2019-04-29T20:01:28.401Z,96445.12
2019-04-29T20:04:24.628Z,96458.02
2019-04-29T20:07:17.425Z,96455.17
2019-04-29T20:10:03.818Z,96459.34
2019-04-29T20:12:31.776Z,96438.81
2019-04-29T20:15:22.140Z,96461.68
2019-04-29T20:18:33.890Z,96456.31
2019-04-29T20:21:32.615Z,96441.78
2019-04-29T20:24:23.613Z,96446.90
2019-04-29T20:27:06.962Z,96444.28
2019-04-29T20:29:56.860Z,96448.80
2019-04-29T20:32:41.431Z,96450.34
2019-04-29T20:38:35.106Z,96446.02
2019-04-29T20:41:40.313Z,96448.83
2019-04-29T20:44:09.641Z,96425.96
2019-04-29T20:47:16.716Z,96447.75
2019-04-29T20:53:05.501Z,96450.06
2019-04-29T20:55:55.427Z,96442.20
2019-04-29T20:58:39.342Z,96444.19
2019-04-29T21:04:45.719Z,96440.02
2019-04-29T21:07:26.292Z,96440.17
2019-04-29T21:10:10.036Z,96437.39
2019-04-29T21:13:20.334Z,96421.72
2019-04-29T21:19:20.988Z,96448.34
2019-04-29T21:22:03.089Z,96425.77
2019-04-29T21:24:53.781Z,96449.45
2019-04-29T21:27:37.494Z,96450.02
2019-04-29T21:30:35.460Z,96446.30
2019-04-29T21:33:17.916Z,96454.02
2019-04-29T21:42:28.074Z,96443.72
2019-04-29T21:48:33.028Z,96437.80
2019-04-29T21:51:11.123Z,96438.75
2019-04-29T21:53:56.075Z,96439.13
2019-04-29T21:56:39.800Z,96437.02
2019-04-29T21:59:29.799Z,96433.70
2019-04-29T22:02:19.886Z,96436.30
2019-04-29T22:05:14.888Z,96439.23
2019-04-29T22:07:54.439Z,96440.08
2019-04-29T22:11:05.172Z,96432.81
2019-04-29T22:19:57.415Z,96425.80
2019-04-29T22:22:41.566Z,96426.78
2019-04-29T22:25:31.327Z,96421.16
2019-04-29T22:28:19.573Z,96427.73
2019-04-29T22:31:07.744Z,96423.41
2019-04-29T22:33:51.845Z,96416.14
2019-04-29T22:39:44.377Z,96407.45
2019-04-29T22:45:44.741Z,96412.64
2019-04-29T22:48:34.851Z,96410.23
2019-04-29T22:51:19.073Z,96410.61
2019-04-29T22:54:08.922Z,96411.19
2019-04-29T22:56:53.652Z,96391.05
2019-04-29T22:59:35.531Z,96410.77
2019-04-29T23:02:28.423Z,96404.33
2019-04-29T23:05:15.429Z,96409.26
2019-04-29T23:08:00.264Z,96407.20
2019-04-29T23:10:49.757Z,96402.16
2019-04-29T23:13:39.603Z,96403.98
2019-04-29T23:16:31.495Z,96397.22
2019-04-29T23:19:17.727Z,96398.87
2019-04-29T23:25:50.767Z,96398.11
2019-04-29T23:28:33.481Z,96398.97
2019-04-29T23:31:27.211Z,96392.52
2019-04-29T23:34:07.595Z,96391.13
2019-04-29T23:36:57.328Z,96387.31
2019-04-29T23:39:45.612Z,96393.16
2019-04-29T23:45:31.300Z,96386.66
2019-04-29T23:48:23.835Z,96377.97
2019-04-29T23:51:05.462Z,96377.88
2019-04-29T23:53:56.879Z,96374.38
2019-04-29T23:57:01.933Z,96367.20
